createdAt,value
2017-12-20T00:00:02.504Z,5.1
2017-12-20T00:05:02.156Z,5.1
2017-12-20T00:10:01.955Z,5.1
2017-12-20T00:15:02.434Z,5.1
2017-12-20T00:20:01.185Z,5.1
2017-12-20T00:25:01.961Z,5.1
2017-12-20T00:30:01.265Z,5.1
2017-12-20T00:35:02.208Z,5.1
2017-12-20T00:40:01.888Z,5.1
2017-12-20T00:45:02.049Z,5.1
2017-12-20T00:50:02.549Z,5.1
2017-12-20T00:55:01.206Z,4.9
2017-12-20T01:00:02.123Z,4.9
2017-12-20T01:05:01.435Z,4.9
2017-12-20T01:10:01.405Z,4.9
2017-12-20T01:15:01.509Z,4.9
2017-12-20T01:20:01.649Z,4.9
2017-12-20T01:25:02.400Z,4.9
2017-12-20T01:30:02.072Z,4.9
2017-12-20T01:35:01.223Z,4.9
2017-12-20T01:40:02.013Z,4.9
2017-12-20T01:45:01.764Z,4.9
2017-12-20T01:50:01.579Z,4.9
2017-12-20T01:55:01.777Z,4.9
2017-12-20T02:00:01.991Z,4.9
2017-12-20T02:05:01.392Z,4.9
2017-12-20T02:10:01.226Z,4.9
2017-12-20T02:15:01.573Z,4.9
2017-12-20T02:20:01.404Z,4.9
2017-12-20T02:25:01.721Z,4.8
2017-12-20T02:30:02.131Z,4.8
2017-12-20T02:35:01.734Z,4.8
2017-12-20T02:40:01.631Z,4.8
2017-12-20T02:45:01.908Z,4.8
2017-12-20T02:50:02.174Z,4.8
2017-12-20T02:55:01.951Z,4.8
2017-12-20T03:00:02.125Z,4.8
2017-12-20T03:05:01.246Z,4.8
2017-12-20T03:10:01.511Z,4.8
2017-12-20T03:15:02.002Z,4.8
2017-12-20T03:20:01.192Z,4.8
2017-12-20T03:25:02.240Z,4.8
2017-12-20T03:30:01.725Z,4.8
2017-12-20T03:35:01.559Z,4.8
2017-12-20T03:40:01.875Z,4.8
2017-12-20T03:45:03.464Z,4.8
2017-12-20T03:50:01.907Z,4.8
2017-12-20T03:55:01.402Z,4.8
2017-12-20T04:00:01.624Z,4.8
2017-12-20T04:05:02.282Z,4.8
2017-12-20T04:10:01.180Z,4.7
2017-12-20T04:15:01.520Z,4.7
2017-12-20T04:20:01.405Z,4.7
2017-12-20T04:25:01.792Z,4.7
2017-12-20T04:30:01.936Z,4.7
2017-12-20T04:35:01.922Z,4.7
2017-12-20T04:40:01.973Z,4.7
2017-12-20T04:45:02.009Z,4.7
2017-12-20T04:50:02.038Z,4.7
2017-12-20T04:55:01.492Z,4.7
2017-12-20T05:00:01.606Z,4.7
2017-12-20T05:05:01.774Z,4.7
2017-12-20T05:10:02.269Z,4.7
2017-12-20T05:15:02.135Z,4.7
2017-12-20T05:20:01.933Z,4.7
2017-12-20T05:25:01.368Z,4.7
2017-12-20T05:30:01.785Z,4.7
2017-12-20T05:35:02.105Z,4.7
2017-12-20T05:40:02.039Z,4.7
2017-12-20T05:45:01.747Z,4.7
2017-12-20T05:50:02.302Z,4.7
2017-12-20T05:55:01.692Z,4.7
2017-12-20T06:00:01.874Z,4.7
2017-12-20T06:05:01.233Z,4.7
2017-12-20T06:10:01.534Z,4.8
2017-12-20T06:15:02.075Z,4.7
2017-12-20T06:20:01.985Z,4.7
2017-12-20T06:25:01.493Z,4.7
2017-12-20T06:30:02.140Z,4.7
2017-12-20T06:35:02.052Z,4.7
2017-12-20T06:40:01.797Z,4.8
2017-12-20T06:45:01.569Z,4.8
2017-12-20T06:50:02.325Z,4.8
2017-12-20T06:55:01.223Z,4.8
2017-12-20T07:00:01.655Z,4.8
2017-12-20T07:05:01.832Z,4.8
2017-12-20T07:10:02.089Z,4.8
2017-12-20T07:15:02.071Z,4.8
2017-12-20T07:20:01.998Z,4.8
2017-12-20T07:25:01.286Z,4.9
2017-12-20T07:30:02.085Z,4.9
2017-12-20T07:35:01.550Z,4.9
2017-12-20T07:40:01.328Z,4.9
2017-12-20T07:45:02.050Z,4.9
2017-12-20T07:50:02.518Z,4.9
2017-12-20T07:55:01.990Z,4.9
2017-12-20T08:00:01.409Z,4.9
2017-12-20T08:05:01.574Z,4.9
2017-12-20T08:10:02.118Z,4.9
2017-12-20T08:15:01.821Z,4.9
2017-12-20T08:20:01.632Z,4.9
2017-12-20T08:25:02.548Z,4.9
2017-12-20T08:30:01.727Z,4.9
2017-12-20T08:35:01.790Z,4.9
2017-12-20T08:40:01.670Z,4.9
2017-12-20T08:45:01.546Z,4.9
2017-12-20T08:50:01.523Z,4.9
2017-12-20T08:55:01.555Z,4.9
2017-12-20T09:00:02.308Z,4.9
2017-12-20T09:05:01.908Z,4.9
2017-12-20T09:10:01.803Z,4.9
2017-12-20T09:15:01.926Z,4.9
2017-12-20T09:20:02.190Z,4.9
2017-12-20T09:25:01.290Z,5.2
2017-12-20T09:30:01.550Z,5.2
2017-12-20T09:35:01.420Z,5.2
2017-12-20T09:40:02.587Z,5.2
2017-12-20T09:45:01.809Z,5.2
2017-12-20T09:50:02.020Z,5.2
2017-12-20T09:55:02.016Z,5.2
2017-12-20T10:00:01.541Z,5.2
2017-12-20T10:05:01.596Z,5.2
2017-12-20T10:10:01.467Z,5.2
2017-12-20T10:15:02.263Z,5.2
2017-12-20T10:20:01.858Z,5.2
2017-12-20T10:25:01.798Z,5.2
2017-12-20T10:30:02.483Z,5.2
2017-12-20T10:35:01.423Z,5.2
2017-12-20T10:40:01.241Z,5.2
2017-12-20T10:45:01.931Z,5.2
2017-12-20T10:50:02.241Z,5.2
2017-12-20T10:55:01.364Z,5.2
2017-12-20T11:00:01.191Z,5.2
2017-12-20T11:05:01.408Z,5.2
2017-12-20T11:10:01.954Z,5.2
2017-12-20T11:15:01.284Z,5.9
2017-12-20T11:20:01.337Z,5.9
2017-12-20T11:25:02.485Z,5.9
2017-12-20T11:30:01.600Z,5.9
2017-12-20T11:35:01.351Z,5.9
2017-12-20T11:40:01.291Z,5.9
2017-12-20T11:45:02.479Z,5.9
2017-12-20T11:50:01.379Z,5.9
2017-12-20T11:55:01.987Z,6.1
2017-12-20T12:00:02.537Z,6.1
2017-12-20T12:05:01.235Z,6.1
2017-12-20T12:10:01.253Z,6.2
2017-12-20T12:15:01.455Z,6.2
2017-12-20T12:20:02.001Z,6.3
2017-12-20T12:25:01.474Z,6.3
2017-12-20T12:30:01.881Z,6.3
2017-12-20T12:35:02.328Z,6.3
2017-12-20T12:40:02.021Z,6.3
2017-12-20T12:45:01.948Z,6.3
2017-12-20T12:50:01.461Z,6.3
2017-12-20T12:55:02.286Z,6.3
2017-12-20T13:00:01.877Z,6.3
2017-12-20T13:05:01.911Z,6.3
2017-12-20T13:10:01.965Z,6.3
2017-12-20T13:15:01.748Z,6.3
2017-12-20T13:20:01.566Z,6.3
2017-12-20T13:25:01.480Z,6.3
2017-12-20T13:30:02.338Z,6.3
2017-12-20T13:35:01.908Z,6.3
2017-12-20T13:40:01.867Z,6.3
2017-12-20T13:45:01.795Z,6.3
2017-12-20T13:50:02.648Z,6.3
2017-12-20T13:55:01.247Z,6.3
2017-12-20T14:00:02.005Z,6.3
2017-12-20T14:05:01.831Z,6.3
2017-12-20T14:10:01.905Z,6.3
2017-12-20T14:15:01.871Z,6.6
2017-12-20T14:20:01.480Z,6.6
2017-12-20T14:25:02.591Z,6.6
2017-12-20T14:30:02.333Z,6.6
2017-12-20T14:35:01.769Z,6.6
2017-12-20T14:40:01.983Z,6.7
2017-12-20T14:45:02.161Z,6.7
2017-12-20T14:50:02.085Z,6.7
2017-12-20T14:55:01.477Z,6.7
2017-12-20T15:00:01.684Z,6.7
2017-12-20T15:05:01.813Z,6.6
2017-12-20T15:10:01.993Z,6.7
2017-12-20T15:15:01.452Z,6.7
2017-12-20T15:20:01.599Z,6.6
2017-12-20T15:25:01.630Z,6.6
2017-12-20T15:30:01.164Z,6.6
2017-12-20T15:35:02.183Z,6.6
2017-12-20T15:40:01.277Z,6.6
2017-12-20T15:45:01.222Z,6.6
2017-12-20T15:50:01.559Z,6.6
2017-12-20T15:55:01.903Z,6.6
2017-12-20T16:00:01.860Z,6.6
2017-12-20T16:05:01.603Z,6.6
2017-12-20T16:10:02.216Z,6.6
2017-12-20T16:15:01.760Z,6.6
2017-12-20T16:20:01.529Z,6.6
2017-12-20T16:25:01.689Z,6.6
2017-12-20T16:30:02.076Z,6.6
2017-12-20T16:35:01.962Z,6.7
2017-12-20T16:40:01.901Z,6.7
2017-12-20T16:45:01.656Z,6.7
2017-12-20T16:50:02.236Z,6.7
2017-12-20T16:55:01.844Z,6.7
2017-12-20T17:00:01.870Z,6.7
2017-12-20T17:05:01.572Z,6.7
2017-12-20T17:10:01.905Z,6.7
2017-12-20T17:15:01.963Z,6.7
2017-12-20T17:20:02.041Z,6.7
2017-12-20T17:25:01.728Z,6.7
2017-12-20T17:30:01.657Z,6.7
2017-12-20T17:35:01.999Z,6.7
2017-12-20T17:40:02.165Z,6.7
2017-12-20T17:45:01.844Z,6.7
2017-12-20T17:50:01.921Z,6.7
2017-12-20T17:55:01.700Z,6.7
2017-12-20T18:00:02.185Z,6.7
2017-12-20T18:05:01.227Z,6.7
2017-12-20T18:10:01.944Z,6.7
2017-12-20T18:15:01.696Z,6.7
2017-12-20T18:20:01.900Z,6.7
2017-12-20T18:25:01.992Z,6.7
2017-12-20T18:30:02.074Z,6.7
2017-12-20T18:35:01.459Z,6.7
2017-12-20T18:40:02.232Z,6.7
2017-12-20T18:45:02.173Z,6.7
2017-12-20T18:50:01.430Z,6.7
2017-12-20T18:55:01.755Z,6.6
2017-12-20T19:00:01.992Z,6.6
2017-12-20T19:05:01.487Z,6.6
2017-12-20T19:10:02.106Z,6.6
2017-12-20T19:15:01.174Z,6.6
2017-12-20T19:20:01.965Z,6.5
2017-12-20T19:25:02.054Z,6.5
2017-12-20T19:30:02.482Z,6.5
2017-12-20T19:35:01.308Z,6.5
2017-12-20T19:40:02.180Z,6.5
2017-12-20T19:45:01.903Z,6.5
2017-12-20T19:50:02.567Z,6.5
2017-12-20T19:55:01.210Z,6.5
2017-12-20T20:00:01.347Z,6.5
2017-12-20T20:05:01.737Z,6.5
2017-12-20T20:10:02.178Z,6.5
2017-12-20T20:15:01.937Z,6.5
2017-12-20T20:20:01.207Z,6.5
2017-12-20T20:25:01.347Z,6.5
2017-12-20T20:30:01.909Z,6.5
2017-12-20T20:35:01.379Z,6.5
2017-12-20T20:40:01.228Z,6.5
2017-12-20T20:45:02.665Z,6.5
2017-12-20T20:50:02.065Z,6.5
2017-12-20T20:55:02.068Z,6.5
2017-12-20T21:00:01.220Z,6.5
2017-12-20T21:05:02.072Z,6.5
2017-12-20T21:10:01.774Z,6.4
2017-12-20T21:15:01.786Z,6.4
2017-12-20T21:20:02.016Z,6.4
2017-12-20T21:25:02.005Z,6.4
2017-12-20T21:30:01.262Z,6.4
2017-12-20T21:35:01.767Z,6.4
2017-12-20T21:40:01.608Z,6.4
2017-12-20T21:45:01.680Z,6.4
2017-12-20T21:50:01.982Z,6.4
2017-12-20T21:55:01.491Z,6.4
2017-12-20T22:00:01.797Z,6.4
2017-12-20T22:05:01.824Z,6.4
2017-12-20T22:10:01.613Z,6.4
2017-12-20T22:15:02.143Z,6.4
2017-12-20T22:20:02.517Z,6.4
2017-12-20T22:25:01.291Z,6.4
2017-12-20T22:30:01.488Z,6.4
2017-12-20T22:35:01.299Z,6.4
2017-12-20T22:40:01.795Z,6.4
2017-12-20T22:45:02.076Z,6.4
2017-12-20T22:50:01.840Z,6.5
2017-12-20T22:55:02.612Z,6.5
2017-12-20T23:00:01.701Z,6.5
2017-12-20T23:05:01.443Z,6.5
2017-12-20T23:10:01.232Z,6.5
2017-12-20T23:15:01.639Z,6.6
2017-12-20T23:20:01.237Z,6.6
2017-12-20T23:25:02.001Z,6.6
2017-12-20T23:30:02.398Z,6.6
2017-12-20T23:35:01.287Z,6.6
2017-12-20T23:40:01.238Z,6.6
2017-12-20T23:45:01.967Z,6.6
2017-12-20T23:50:01.960Z,6.7
2017-12-20T23:55:01.272Z,6.7
